sensor_id;sensor_type;location;lat;lon;timestamp;temperature;humidity
52211;DHT22;38179;52.756;6.906;2023-03-03T00:00:48;1.50;99.90
52211;DHT22;38179;52.756;6.906;2023-03-03T00:03:20;1.50;99.90
52211;DHT22;38179;52.756;6.906;2023-03-03T00:05:46;1.50;99.90
52211;DHT22;38179;52.756;6.906;2023-03-03T00:08:12;1.50;99.90
52211;DHT22;38179;52.756;6.906;2023-03-03T00:10:38;1.50;99.90
52211;DHT22;38179;52.756;6.906;2023-03-03T00:13:15;1.50;99.90
52211;DHT22;38179;52.756;6.906;2023-03-03T00:15:43;1.50;99.90
52211;DHT22;38179;52.756;6.906;2023-03-03T00:18:29;1.50;99.90
52211;DHT22;38179;52.756;6.906;2023-03-03T00:20:58;1.50;99.90
52211;DHT22;38179;52.756;6.906;2023-03-03T00:23:38;1.50;99.90
52211;DHT22;38179;52.756;6.906;2023-03-03T00:26:35;1.50;99.90
52211;DHT22;38179;52.756;6.906;2023-03-03T00:29:29;1.50;99.90
52211;DHT22;38179;52.756;6.906;2023-03-03T00:34:36;1.50;99.90
52211;DHT22;38179;52.756;6.906;2023-03-03T00:37:02;1.50;99.90
52211;DHT22;38179;52.756;6.906;2023-03-03T00:39:35;1.50;99.90
52211;DHT22;38179;52.756;6.906;2023-03-03T00:42:15;1.50;99.90
52211;DHT22;38179;52.756;6.906;2023-03-03T00:45:04;1.40;99.90
52211;DHT22;38179;52.756;6.906;2023-03-03T00:47:36;1.50;99.90
52211;DHT22;38179;52.756;6.906;2023-03-03T00:52:45;1.50;99.90
52211;DHT22;38179;52.756;6.906;2023-03-03T00:55:16;1.50;99.90
52211;DHT22;38179;52.756;6.906;2023-03-03T00:57:42;1.50;99.90
52211;DHT22;38179;52.756;6.906;2023-03-03T01:00:08;1.50;99.90
52211;DHT22;38179;52.756;6.906;2023-03-03T01:02:34;1.50;99.90
52211;DHT22;38179;52.756;6.906;2023-03-03T01:05:00;1.50;99.90
52211;DHT22;38179;52.756;6.906;2023-03-03T01:07:26;1.50;99.90
52211;DHT22;38179;52.756;6.906;2023-03-03T01:09:52;1.50;99.90
52211;DHT22;38179;52.756;6.906;2023-03-03T01:12:18;1.50;99.90
52211;DHT22;38179;52.756;6.906;2023-03-03T01:14:44;1.50;99.90
52211;DHT22;38179;52.756;6.906;2023-03-03T01:17:10;1.50;99.90
52211;DHT22;38179;52.756;6.906;2023-03-03T01:19:36;1.50;99.90
52211;DHT22;38179;52.756;6.906;2023-03-03T01:22:02;1.50;99.90
52211;DHT22;38179;52.756;6.906;2023-03-03T01:24:28;1.50;99.90
52211;DHT22;38179;52.756;6.906;2023-03-03T01:26:54;1.40;99.90
52211;DHT22;38179;52.756;6.906;2023-03-03T01:29:19;1.50;99.90
52211;DHT22;38179;52.756;6.906;2023-03-03T01:31:45;1.50;99.90
52211;DHT22;38179;52.756;6.906;2023-03-03T01:34:11;1.40;99.90
52211;DHT22;38179;52.756;6.906;2023-03-03T01:36:37;1.40;99.90
52211;DHT22;38179;52.756;6.906;2023-03-03T01:39:03;1.50;99.90
52211;DHT22;38179;52.756;6.906;2023-03-03T01:41:30;1.40;99.90
52211;DHT22;38179;52.756;6.906;2023-03-03T01:43:58;1.40;99.90
52211;DHT22;38179;52.756;6.906;2023-03-03T01:49:00;1.40;99.90
52211;DHT22;38179;52.756;6.906;2023-03-03T01:51:37;1.50;99.90
52211;DHT22;38179;52.756;6.906;2023-03-03T01:54:10;1.40;99.90
52211;DHT22;38179;52.756;6.906;2023-03-03T01:56:37;1.40;99.90
52211;DHT22;38179;52.756;6.906;2023-03-03T01:59:15;1.40;99.90
52211;DHT22;38179;52.756;6.906;2023-03-03T02:01:44;1.40;99.90
52211;DHT22;38179;52.756;6.906;2023-03-03T02:04:12;1.40;99.90
52211;DHT22;38179;52.756;6.906;2023-03-03T02:06:42;1.40;99.90
52211;DHT22;38179;52.756;6.906;2023-03-03T02:11:56;1.40;99.90
52211;DHT22;38179;52.756;6.906;2023-03-03T02:14:23;1.40;99.90
52211;DHT22;38179;52.756;6.906;2023-03-03T02:16:49;1.40;99.90
52211;DHT22;38179;52.756;6.906;2023-03-03T02:21:52;1.40;99.90
52211;DHT22;38179;52.756;6.906;2023-03-03T02:24:24;1.40;99.90
52211;DHT22;38179;52.756;6.906;2023-03-03T02:26:52;1.40;99.90
52211;DHT22;38179;52.756;6.906;2023-03-03T02:29:18;1.40;99.90
52211;DHT22;38179;52.756;6.906;2023-03-03T02:31:44;1.40;99.90
52211;DHT22;38179;52.756;6.906;2023-03-03T02:34:10;1.40;99.90
52211;DHT22;38179;52.756;6.906;2023-03-03T02:36:38;1.40;99.90
52211;DHT22;38179;52.756;6.906;2023-03-03T02:39:15;1.40;99.90
52211;DHT22;38179;52.756;6.906;2023-03-03T02:44:31;1.40;99.90
52211;DHT22;38179;52.756;6.906;2023-03-03T02:46:58;1.40;99.90
52211;DHT22;38179;52.756;6.906;2023-03-03T02:49:30;1.40;99.90
52211;DHT22;38179;52.756;6.906;2023-03-03T02:51:57;1.40;99.90
52211;DHT22;38179;52.756;6.906;2023-03-03T02:54:25;1.40;99.90
52211;DHT22;38179;52.756;6.906;2023-03-03T02:56:51;1.40;99.90
52211;DHT22;38179;52.756;6.906;2023-03-03T02:59:18;1.40;99.90
52211;DHT22;38179;52.756;6.906;2023-03-03T03:01:45;1.40;99.90
52211;DHT22;38179;52.756;6.906;2023-03-03T03:04:17;1.40;99.90
52211;DHT22;38179;52.756;6.906;2023-03-03T03:06:44;1.40;99.90
52211;DHT22;38179;52.756;6.906;2023-03-03T03:09:10;1.40;99.90
52211;DHT22;38179;52.756;6.906;2023-03-03T03:14:20;0.10;99.90
52211;DHT22;38179;52.756;6.906;2023-03-03T03:16:48;1.30;99.90
52211;DHT22;38179;52.756;6.906;2023-03-03T03:19:15;1.30;99.90
52211;DHT22;38179;52.756;6.906;2023-03-03T03:21:41;1.30;99.90
52211;DHT22;38179;52.756;6.906;2023-03-03T03:24:06;1.30;99.90
52211;DHT22;38179;52.756;6.906;2023-03-03T03:26:32;1.30;99.90
52211;DHT22;38179;52.756;6.906;2023-03-03T03:28:58;1.30;99.90
52211;DHT22;38179;52.756;6.906;2023-03-03T03:31:24;1.30;99.90
52211;DHT22;38179;52.756;6.906;2023-03-03T03:33:50;1.30;99.90
52211;DHT22;38179;52.756;6.906;2023-03-03T03:36:17;1.30;99.90
52211;DHT22;38179;52.756;6.906;2023-03-03T03:38:43;1.30;99.90
52211;DHT22;38179;52.756;6.906;2023-03-03T03:41:11;1.20;99.90
52211;DHT22;38179;52.756;6.906;2023-03-03T03:43:37;1.30;99.90
52211;DHT22;38179;52.756;6.906;2023-03-03T03:46:03;1.30;99.90
52211;DHT22;38179;52.756;6.906;2023-03-03T03:48:29;1.30;99.90
52211;DHT22;38179;52.756;6.906;2023-03-03T03:50:55;1.30;99.90
52211;DHT22;38179;52.756;6.906;2023-03-03T03:53:21;1.30;99.90
52211;DHT22;38179;52.756;6.906;2023-03-03T03:55:47;1.30;99.90
52211;DHT22;38179;52.756;6.906;2023-03-03T03:58:14;1.20;99.90
52211;DHT22;38179;52.756;6.906;2023-03-03T04:00:40;1.30;99.90
52211;DHT22;38179;52.756;6.906;2023-03-03T04:03:07;1.20;99.90
52211;DHT22;38179;52.756;6.906;2023-03-03T04:05:33;1.20;99.90
52211;DHT22;38179;52.756;6.906;2023-03-03T04:07:59;1.30;99.90
52211;DHT22;38179;52.756;6.906;2023-03-03T04:10:25;1.30;99.90
52211;DHT22;38179;52.756;6.906;2023-03-03T04:12:51;1.20;99.90
52211;DHT22;38179;52.756;6.906;2023-03-03T04:15:17;1.30;99.90
52211;DHT22;38179;52.756;6.906;2023-03-03T04:17:43;1.30;99.90
52211;DHT22;38179;52.756;6.906;2023-03-03T04:20:12;1.30;99.90
52211;DHT22;38179;52.756;6.906;2023-03-03T04:22:40;1.30;99.90
52211;DHT22;38179;52.756;6.906;2023-03-03T04:25:07;1.30;99.90
52211;DHT22;38179;52.756;6.906;2023-03-03T04:27:34;1.30;99.90
52211;DHT22;38179;52.756;6.906;2023-03-03T04:30:01;1.30;99.90
52211;DHT22;38179;52.756;6.906;2023-03-03T04:32:27;1.30;99.90
52211;DHT22;38179;52.756;6.906;2023-03-03T04:34:53;1.30;99.90
52211;DHT22;38179;52.756;6.906;2023-03-03T04:37:19;1.30;99.90
52211;DHT22;38179;52.756;6.906;2023-03-03T04:39:45;1.30;99.90
52211;DHT22;38179;52.756;6.906;2023-03-03T04:42:11;1.30;99.90
52211;DHT22;38179;52.756;6.906;2023-03-03T04:44:37;1.30;99.90
52211;DHT22;38179;52.756;6.906;2023-03-03T04:47:03;1.30;99.90
52211;DHT22;38179;52.756;6.906;2023-03-03T04:49:29;1.30;99.90
52211;DHT22;38179;52.756;6.906;2023-03-03T04:51:54;1.30;99.90
52211;DHT22;38179;52.756;6.906;2023-03-03T04:54:20;1.40;99.90
52211;DHT22;38179;52.756;6.906;2023-03-03T04:56:46;1.40;99.90
52211;DHT22;38179;52.756;6.906;2023-03-03T04:59:12;1.30;99.90
52211;DHT22;38179;52.756;6.906;2023-03-03T05:01:38;1.40;99.90
52211;DHT22;38179;52.756;6.906;2023-03-03T05:04:04;1.40;99.90
52211;DHT22;38179;52.756;6.906;2023-03-03T05:06:30;1.40;99.90
52211;DHT22;38179;52.756;6.906;2023-03-03T05:08:56;1.40;99.90
52211;DHT22;38179;52.756;6.906;2023-03-03T05:11:22;1.40;99.90
52211;DHT22;38179;52.756;6.906;2023-03-03T05:13:47;1.40;99.90
52211;DHT22;38179;52.756;6.906;2023-03-03T05:16:13;1.40;99.90
52211;DHT22;38179;52.756;6.906;2023-03-03T05:18:39;1.40;99.90
52211;DHT22;38179;52.756;6.906;2023-03-03T05:21:06;1.40;99.90
52211;DHT22;38179;52.756;6.906;2023-03-03T05:23:32;1.40;99.90
52211;DHT22;38179;52.756;6.906;2023-03-03T05:25:58;1.40;99.90
52211;DHT22;38179;52.756;6.906;2023-03-03T05:28:23;1.40;99.90
52211;DHT22;38179;52.756;6.906;2023-03-03T05:30:49;2.50;99.90
52211;DHT22;38179;52.756;6.906;2023-03-03T05:33:16;1.40;99.90
52211;DHT22;38179;52.756;6.906;2023-03-03T05:35:42;1.40;99.90
52211;DHT22;38179;52.756;6.906;2023-03-03T05:38:09;1.50;99.90
52211;DHT22;38179;52.756;6.906;2023-03-03T05:40:35;1.40;99.90
52211;DHT22;38179;52.756;6.906;2023-03-03T05:43:01;1.50;99.90
52211;DHT22;38179;52.756;6.906;2023-03-03T05:45:27;1.40;99.90
52211;DHT22;38179;52.756;6.906;2023-03-03T05:47:53;1.50;99.90
52211;DHT22;38179;52.756;6.906;2023-03-03T05:50:23;1.40;99.90
52211;DHT22;38179;52.756;6.906;2023-03-03T05:52:50;1.50;99.90
52211;DHT22;38179;52.756;6.906;2023-03-03T05:55:17;1.40;99.90
52211;DHT22;38179;52.756;6.906;2023-03-03T05:57:43;1.40;99.90
52211;DHT22;38179;52.756;6.906;2023-03-03T06:00:10;1.50;99.90
52211;DHT22;38179;52.756;6.906;2023-03-03T06:02:36;1.50;99.90
52211;DHT22;38179;52.756;6.906;2023-03-03T06:05:02;1.50;99.90
52211;DHT22;38179;52.756;6.906;2023-03-03T06:07:28;1.40;99.90
52211;DHT22;38179;52.756;6.906;2023-03-03T06:09:54;1.40;99.90
52211;DHT22;38179;52.756;6.906;2023-03-03T06:12:19;1.40;99.90
52211;DHT22;38179;52.756;6.906;2023-03-03T06:14:46;1.50;99.90
52211;DHT22;38179;52.756;6.906;2023-03-03T06:17:15;1.40;99.90
52211;DHT22;38179;52.756;6.906;2023-03-03T06:19:41;1.40;99.90
52211;DHT22;38179;52.756;6.906;2023-03-03T06:22:08;1.50;99.90
52211;DHT22;38179;52.756;6.906;2023-03-03T06:24:34;1.50;99.90
52211;DHT22;38179;52.756;6.906;2023-03-03T06:27:00;1.40;99.90
52211;DHT22;38179;52.756;6.906;2023-03-03T06:29:27;1.40;99.90
52211;DHT22;38179;52.756;6.906;2023-03-03T06:31:53;1.50;99.90
52211;DHT22;38179;52.756;6.906;2023-03-03T06:34:20;1.50;99.90
52211;DHT22;38179;52.756;6.906;2023-03-03T06:36:46;1.40;99.90
52211;DHT22;38179;52.756;6.906;2023-03-03T06:39:12;1.40;99.90
52211;DHT22;38179;52.756;6.906;2023-03-03T06:41:38;1.40;99.90
52211;DHT22;38179;52.756;6.906;2023-03-03T06:44:04;1.50;99.90
52211;DHT22;38179;52.756;6.906;2023-03-03T06:46:30;1.50;99.90
52211;DHT22;38179;52.756;6.906;2023-03-03T06:48:56;1.40;99.90
52211;DHT22;38179;52.756;6.906;2023-03-03T06:51:30;1.50;99.90
52211;DHT22;38179;52.756;6.906;2023-03-03T06:54:01;1.50;99.90
52211;DHT22;38179;52.756;6.906;2023-03-03T06:56:35;1.60;99.90
52211;DHT22;38179;52.756;6.906;2023-03-03T06:59:05;1.60;99.90
52211;DHT22;38179;52.756;6.906;2023-03-03T07:01:36;1.60;99.90
52211;DHT22;38179;52.756;6.906;2023-03-03T07:06:50;1.50;99.90
52211;DHT22;38179;52.756;6.906;2023-03-03T07:09:24;1.50;99.90
52211;DHT22;38179;52.756;6.906;2023-03-03T07:12:09;1.50;99.90
52211;DHT22;38179;52.756;6.906;2023-03-03T07:14:42;1.50;99.90
52211;DHT22;38179;52.756;6.906;2023-03-03T07:17:15;1.50;99.90
52211;DHT22;38179;52.756;6.906;2023-03-03T07:19:42;1.50;99.90
52211;DHT22;38179;52.756;6.906;2023-03-03T07:22:20;1.50;99.90
52211;DHT22;38179;52.756;6.906;2023-03-03T07:24:52;1.50;99.90
52211;DHT22;38179;52.756;6.906;2023-03-03T07:27:22;1.50;99.90
52211;DHT22;38179;52.756;6.906;2023-03-03T07:29:53;1.50;99.90
52211;DHT22;38179;52.756;6.906;2023-03-03T07:32:37;1.60;99.90
52211;DHT22;38179;52.756;6.906;2023-03-03T07:35:37;1.60;99.90
52211;DHT22;38179;52.756;6.906;2023-03-03T07:38:36;1.60;99.90
52211;DHT22;38179;52.756;6.906;2023-03-03T07:41:17;1.60;99.90
52211;DHT22;38179;52.756;6.906;2023-03-03T07:48:52;1.80;99.90
52211;DHT22;38179;52.756;6.906;2023-03-03T07:51:27;1.80;99.90
52211;DHT22;38179;52.756;6.906;2023-03-03T07:57:06;1.90;99.90
52211;DHT22;38179;52.756;6.906;2023-03-03T08:02:46;2.00;99.90
52211;DHT22;38179;52.756;6.906;2023-03-03T08:05:28;2.10;99.90
52211;DHT22;38179;52.756;6.906;2023-03-03T08:10:35;2.20;99.90
52211;DHT22;38179;52.756;6.906;2023-03-03T08:13:11;2.20;99.90
52211;DHT22;38179;52.756;6.906;2023-03-03T08:15:40;2.20;99.90
52211;DHT22;38179;52.756;6.906;2023-03-03T08:18:24;2.30;99.90
52211;DHT22;38179;52.756;6.906;2023-03-03T08:23:38;2.40;99.90
52211;DHT22;38179;52.756;6.906;2023-03-03T08:26:04;2.40;99.90
52211;DHT22;38179;52.756;6.906;2023-03-03T08:28:30;2.50;99.90
52211;DHT22;38179;52.756;6.906;2023-03-03T08:30:56;2.50;99.90
52211;DHT22;38179;52.756;6.906;2023-03-03T08:33:22;2.60;99.90
52211;DHT22;38179;52.756;6.906;2023-03-03T08:35:48;2.70;99.90
52211;DHT22;38179;52.756;6.906;2023-03-03T08:38:17;2.70;99.90
52211;DHT22;38179;52.756;6.906;2023-03-03T08:40:44;2.80;99.90
52211;DHT22;38179;52.756;6.906;2023-03-03T08:43:10;2.90;99.90
52211;DHT22;38179;52.756;6.906;2023-03-03T08:45:45;2.90;99.90
52211;DHT22;38179;52.756;6.906;2023-03-03T08:48:11;2.90;99.90
52211;DHT22;38179;52.756;6.906;2023-03-03T08:50:37;3.00;99.90
52211;DHT22;38179;52.756;6.906;2023-03-03T08:53:04;2.90;99.90
52211;DHT22;38179;52.756;6.906;2023-03-03T08:55:31;3.00;99.90
52211;DHT22;38179;52.756;6.906;2023-03-03T08:57:57;3.00;99.90
52211;DHT22;38179;52.756;6.906;2023-03-03T09:00:23;3.00;99.90
52211;DHT22;38179;52.756;6.906;2023-03-03T09:02:49;3.10;99.90
52211;DHT22;38179;52.756;6.906;2023-03-03T09:05:17;3.10;99.90
52211;DHT22;38179;52.756;6.906;2023-03-03T09:07:43;3.10;99.90
52211;DHT22;38179;52.756;6.906;2023-03-03T09:10:12;3.20;99.90
52211;DHT22;38179;52.756;6.906;2023-03-03T09:12:41;3.20;99.90
52211;DHT22;38179;52.756;6.906;2023-03-03T09:15:26;3.20;99.90
52211;DHT22;38179;52.756;6.906;2023-03-03T09:18:21;3.20;99.90
52211;DHT22;38179;52.756;6.906;2023-03-03T09:20:49;3.30;99.90
52211;DHT22;38179;52.756;6.906;2023-03-03T09:23:40;3.30;99.90
52211;DHT22;38179;52.756;6.906;2023-03-03T09:31:47;3.50;99.90
52211;DHT22;38179;52.756;6.906;2023-03-03T09:36:45;3.70;99.90
52211;DHT22;38179;52.756;6.906;2023-03-03T09:39:28;3.70;99.90
52211;DHT22;38179;52.756;6.906;2023-03-03T09:42:11;3.80;99.90
52211;DHT22;38179;52.756;6.906;2023-03-03T09:45:05;4.00;99.90
52211;DHT22;38179;52.756;6.906;2023-03-03T09:56:27;4.40;99.90
52211;DHT22;38179;52.756;6.906;2023-03-03T10:04:47;4.70;99.90
52211;DHT22;38179;52.756;6.906;2023-03-03T10:07:41;4.70;99.90
52211;DHT22;38179;52.756;6.906;2023-03-03T10:13:22;4.70;99.90
52211;DHT22;38179;52.756;6.906;2023-03-03T10:22:05;4.90;99.90
52211;DHT22;38179;52.756;6.906;2023-03-03T10:27:39;4.90;99.90
52211;DHT22;38179;52.756;6.906;2023-03-03T10:44:07;5.00;99.90
52211;DHT22;38179;52.756;6.906;2023-03-03T10:47:23;5.00;99.90
52211;DHT22;38179;52.756;6.906;2023-03-03T11:01:19;5.00;99.90
52211;DHT22;38179;52.756;6.906;2023-03-03T11:14:37;5.00;99.90
52211;DHT22;38179;52.756;6.906;2023-03-03T11:20:23;5.00;99.90
52211;DHT22;38179;52.756;6.906;2023-03-03T11:25:53;5.00;99.90
52211;DHT22;38179;52.756;6.906;2023-03-03T11:28:36;5.00;99.90
52211;DHT22;38179;52.756;6.906;2023-03-03T11:40:11;5.10;99.90
52211;DHT22;38179;52.756;6.906;2023-03-03T11:45:24;5.10;99.90
52211;DHT22;38179;52.756;6.906;2023-03-03T11:53:28;5.20;99.90
52211;DHT22;38179;52.756;6.906;2023-03-03T11:56:02;5.30;99.90
52211;DHT22;38179;52.756;6.906;2023-03-03T11:58:36;5.30;99.90
52211;DHT22;38179;52.756;6.906;2023-03-03T12:01:34;5.30;99.90
52211;DHT22;38179;52.756;6.906;2023-03-03T12:04:24;5.40;99.90
52211;DHT22;38179;52.756;6.906;2023-03-03T12:09:41;5.40;99.90
52211;DHT22;38179;52.756;6.906;2023-03-03T12:12:33;5.50;99.90
52211;DHT22;38179;52.756;6.906;2023-03-03T12:25:44;5.60;99.90
52211;DHT22;38179;52.756;6.906;2023-03-03T12:28:23;5.70;99.90
52211;DHT22;38179;52.756;6.906;2023-03-03T12:33:58;5.70;99.90
52211;DHT22;38179;52.756;6.906;2023-03-03T12:42:21;5.80;99.90
52211;DHT22;38179;52.756;6.906;2023-03-03T12:44:55;5.90;99.90
52211;DHT22;38179;52.756;6.906;2023-03-03T12:47:29;5.90;99.90
52211;DHT22;38179;52.756;6.906;2023-03-03T12:56:07;5.90;99.90
52211;DHT22;38179;52.756;6.906;2023-03-03T13:17:31;6.20;99.90
52211;DHT22;38179;52.756;6.906;2023-03-03T13:25:26;6.20;99.90
52211;DHT22;38179;52.756;6.906;2023-03-03T13:27:59;6.20;99.90
52211;DHT22;38179;52.756;6.906;2023-03-03T13:30:33;6.20;99.90
52211;DHT22;38179;52.756;6.906;2023-03-03T13:33:18;6.20;99.90
52211;DHT22;38179;52.756;6.906;2023-03-03T13:35:48;6.10;99.90
52211;DHT22;38179;52.756;6.906;2023-03-03T13:38:21;6.10;99.90
52211;DHT22;38179;52.756;6.906;2023-03-03T13:41:03;6.30;99.90
52211;DHT22;38179;52.756;6.906;2023-03-03T13:46:17;6.40;99.90
52211;DHT22;38179;52.756;6.906;2023-03-03T13:51:59;6.40;99.90
52211;DHT22;38179;52.756;6.906;2023-03-03T14:03:13;6.60;99.90
52211;DHT22;38179;52.756;6.906;2023-03-03T14:11:12;6.70;99.90
52211;DHT22;38179;52.756;6.906;2023-03-03T14:13:48;6.80;99.90
52211;DHT22;38179;52.756;6.906;2023-03-03T14:22:16;6.70;99.90
52211;DHT22;38179;52.756;6.906;2023-03-03T14:25:05;6.70;99.90
52211;DHT22;38179;52.756;6.906;2023-03-03T14:27:39;6.70;99.90
52211;DHT22;38179;52.756;6.906;2023-03-03T14:30:25;6.60;99.90
52211;DHT22;38179;52.756;6.906;2023-03-03T14:41:16;6.60;99.90
52211;DHT22;38179;52.756;6.906;2023-03-03T14:43:45;6.60;99.90
52211;DHT22;38179;52.756;6.906;2023-03-03T14:48:58;6.70;99.90
52211;DHT22;38179;52.756;6.906;2023-03-03T14:51:26;6.80;99.90
52211;DHT22;38179;52.756;6.906;2023-03-03T14:53:54;6.80;99.90
52211;DHT22;38179;52.756;6.906;2023-03-03T14:56:33;6.90;99.90
52211;DHT22;38179;52.756;6.906;2023-03-03T14:59:20;7.00;99.90
52211;DHT22;38179;52.756;6.906;2023-03-03T15:04:40;7.00;99.90
52211;DHT22;38179;52.756;6.906;2023-03-03T15:07:27;7.10;99.90
52211;DHT22;38179;52.756;6.906;2023-03-03T15:09:55;7.00;99.90
52211;DHT22;38179;52.756;6.906;2023-03-03T15:12:36;7.10;99.90
52211;DHT22;38179;52.756;6.906;2023-03-03T15:17:40;7.10;99.90
52211;DHT22;38179;52.756;6.906;2023-03-03T15:28:30;6.90;99.90
52211;DHT22;38179;52.756;6.906;2023-03-03T15:34:01;6.70;99.90
52211;DHT22;38179;52.756;6.906;2023-03-03T15:39:21;6.70;99.90
52211;DHT22;38179;52.756;6.906;2023-03-03T15:41:58;6.70;99.90
52211;DHT22;38179;52.756;6.906;2023-03-03T15:44:54;6.70;99.90
52211;DHT22;38179;52.756;6.906;2023-03-03T15:50:02;6.70;99.90
52211;DHT22;38179;52.756;6.906;2023-03-03T16:00:37;6.60;99.90
52211;DHT22;38179;52.756;6.906;2023-03-03T16:03:43;6.60;99.90
52211;DHT22;38179;52.756;6.906;2023-03-03T16:06:18;6.60;99.90
52211;DHT22;38179;52.756;6.906;2023-03-03T16:12:11;6.50;99.90
52211;DHT22;38179;52.756;6.906;2023-03-03T16:24:58;6.40;99.90
52211;DHT22;38179;52.756;6.906;2023-03-03T16:27:45;6.40;99.90
52211;DHT22;38179;52.756;6.906;2023-03-03T16:35:34;6.30;99.90
52211;DHT22;38179;52.756;6.906;2023-03-03T16:38:10;6.30;99.90
52211;DHT22;38179;52.756;6.906;2023-03-03T16:40:48;6.30;99.90
52211;DHT22;38179;52.756;6.906;2023-03-03T16:45:49;6.20;99.90
52211;DHT22;38179;52.756;6.906;2023-03-03T17:03:59;6.10;99.90
52211;DHT22;38179;52.756;6.906;2023-03-03T17:09:31;6.00;99.90
52211;DHT22;38179;52.756;6.906;2023-03-03T17:17:42;5.90;99.90
52211;DHT22;38179;52.756;6.906;2023-03-03T17:23:32;5.80;99.90
52211;DHT22;38179;52.756;6.906;2023-03-03T17:34:49;5.70;99.90
52211;DHT22;38179;52.756;6.906;2023-03-03T17:45:38;5.50;99.90
52211;DHT22;38179;52.756;6.906;2023-03-03T18:02:00;5.50;99.90
52211;DHT22;38179;52.756;6.906;2023-03-03T18:18:56;5.40;99.90
52211;DHT22;38179;52.756;6.906;2023-03-03T18:23:50;5.40;99.90
52211;DHT22;38179;52.756;6.906;2023-03-03T18:29:31;5.40;99.90
52211;DHT22;38179;52.756;6.906;2023-03-03T18:37:01;5.40;99.90
52211;DHT22;38179;52.756;6.906;2023-03-03T18:39:46;5.40;99.90
52211;DHT22;38179;52.756;6.906;2023-03-03T18:44:42;5.40;99.90
52211;DHT22;38179;52.756;6.906;2023-03-03T18:47:09;5.40;99.90
52211;DHT22;38179;52.756;6.906;2023-03-03T18:50:14;5.40;99.90
52211;DHT22;38179;52.756;6.906;2023-03-03T18:55:55;5.40;99.90
52211;DHT22;38179;52.756;6.906;2023-03-03T19:00:57;5.40;99.90
52211;DHT22;38179;52.756;6.906;2023-03-03T19:03:26;5.40;99.90
52211;DHT22;38179;52.756;6.906;2023-03-03T19:05:53;5.40;99.90
52211;DHT22;38179;52.756;6.906;2023-03-03T19:08:23;5.40;99.90
52211;DHT22;38179;52.756;6.906;2023-03-03T19:10:55;5.30;99.90
52211;DHT22;38179;52.756;6.906;2023-03-03T19:24:23;5.30;99.90
52211;DHT22;38179;52.756;6.906;2023-03-03T19:35:32;5.30;99.90
52211;DHT22;38179;52.756;6.906;2023-03-03T19:46:25;5.30;99.90
52211;DHT22;38179;52.756;6.906;2023-03-03T19:56:54;5.30;99.90
52211;DHT22;38179;52.756;6.906;2023-03-03T20:02:01;5.30;99.90
52211;DHT22;38179;52.756;6.906;2023-03-03T20:15:50;5.20;99.90
52211;DHT22;38179;52.756;6.906;2023-03-03T20:21:19;5.20;99.90
52211;DHT22;38179;52.756;6.906;2023-03-03T20:29:57;5.20;99.90
52211;DHT22;38179;52.756;6.906;2023-03-03T20:51:42;5.20;99.90
52211;DHT22;38179;52.756;6.906;2023-03-03T20:57:04;5.20;99.90
52211;DHT22;38179;52.756;6.906;2023-03-03T20:59:42;5.20;99.90
52211;DHT22;38179;52.756;6.906;2023-03-03T21:05:13;5.10;99.90
52211;DHT22;38179;52.756;6.906;2023-03-03T21:08:00;5.10;99.90
52211;DHT22;38179;52.756;6.906;2023-03-03T21:10:34;5.20;99.90
52211;DHT22;38179;52.756;6.906;2023-03-03T21:14:12;5.20;99.90
52211;DHT22;38179;52.756;6.906;2023-03-03T21:18:59;5.20;99.90
52211;DHT22;38179;52.756;6.906;2023-03-03T21:22:00;5.20;99.90
52211;DHT22;38179;52.756;6.906;2023-03-03T21:24:19;5.10;99.90
52211;DHT22;38179;52.756;6.906;2023-03-03T21:26:57;5.20;99.90
52211;DHT22;38179;52.756;6.906;2023-03-03T21:29:27;5.10;99.90
52211;DHT22;38179;52.756;6.906;2023-03-03T21:32:01;5.10;99.90
52211;DHT22;38179;52.756;6.906;2023-03-03T21:34:39;5.10;99.90
52211;DHT22;38179;52.756;6.906;2023-03-03T21:37:13;5.10;99.90
52211;DHT22;38179;52.756;6.906;2023-03-03T21:39:43;5.10;99.90
52211;DHT22;38179;52.756;6.906;2023-03-03T21:42:14;5.10;99.90
52211;DHT22;38179;52.756;6.906;2023-03-03T21:44:43;5.10;99.90
52211;DHT22;38179;52.756;6.906;2023-03-03T21:47:14;5.10;99.90
52211;DHT22;38179;52.756;6.906;2023-03-03T21:49:44;5.10;99.90
52211;DHT22;38179;52.756;6.906;2023-03-03T21:52:11;5.10;99.90
52211;DHT22;38179;52.756;6.906;2023-03-03T21:54:38;5.10;99.90
52211;DHT22;38179;52.756;6.906;2023-03-03T21:57:03;5.10;99.90
52211;DHT22;38179;52.756;6.906;2023-03-03T21:59:31;5.10;99.90
52211;DHT22;38179;52.756;6.906;2023-03-03T22:01:57;5.10;99.90
52211;DHT22;38179;52.756;6.906;2023-03-03T22:04:24;5.10;99.90
52211;DHT22;38179;52.756;6.906;2023-03-03T22:06:50;5.10;99.90
52211;DHT22;38179;52.756;6.906;2023-03-03T22:09:17;5.10;99.90
52211;DHT22;38179;52.756;6.906;2023-03-03T22:11:43;5.10;99.90
52211;DHT22;38179;52.756;6.906;2023-03-03T22:14:10;5.10;99.90
52211;DHT22;38179;52.756;6.906;2023-03-03T22:16:36;5.10;99.90
52211;DHT22;38179;52.756;6.906;2023-03-03T22:19:02;5.10;99.90
52211;DHT22;38179;52.756;6.906;2023-03-03T22:21:28;5.10;99.90
52211;DHT22;38179;52.756;6.906;2023-03-03T22:23:54;5.20;99.90
52211;DHT22;38179;52.756;6.906;2023-03-03T22:26:20;5.10;99.90
52211;DHT22;38179;52.756;6.906;2023-03-03T22:28:47;5.10;99.90
52211;DHT22;38179;52.756;6.906;2023-03-03T22:31:14;5.10;99.90
52211;DHT22;38179;52.756;6.906;2023-03-03T22:33:40;5.10;99.90
52211;DHT22;38179;52.756;6.906;2023-03-03T22:36:06;5.10;99.90
52211;DHT22;38179;52.756;6.906;2023-03-03T22:38:33;5.10;99.90
52211;DHT22;38179;52.756;6.906;2023-03-03T22:40:59;5.10;99.90
52211;DHT22;38179;52.756;6.906;2023-03-03T22:43:25;5.10;99.90
52211;DHT22;38179;52.756;6.906;2023-03-03T22:45:55;5.10;99.90
52211;DHT22;38179;52.756;6.906;2023-03-03T22:48:22;5.10;99.90
52211;DHT22;38179;52.756;6.906;2023-03-03T22:50:49;5.10;99.90
52211;DHT22;38179;52.756;6.906;2023-03-03T22:53:15;5.10;99.90
52211;DHT22;38179;52.756;6.906;2023-03-03T22:55:41;5.10;99.90
52211;DHT22;38179;52.756;6.906;2023-03-03T22:58:08;5.10;99.90
52211;DHT22;38179;52.756;6.906;2023-03-03T23:00:34;5.10;99.90
52211;DHT22;38179;52.756;6.906;2023-03-03T23:03:04;5.10;99.90
52211;DHT22;38179;52.756;6.906;2023-03-03T23:05:30;5.10;99.90
52211;DHT22;38179;52.756;6.906;2023-03-03T23:07:55;5.10;99.90
52211;DHT22;38179;52.756;6.906;2023-03-03T23:10:21;5.10;99.90
52211;DHT22;38179;52.756;6.906;2023-03-03T23:12:47;5.10;99.90
52211;DHT22;38179;52.756;6.906;2023-03-03T23:15:13;5.20;99.90
52211;DHT22;38179;52.756;6.906;2023-03-03T23:17:41;5.20;99.90
52211;DHT22;38179;52.756;6.906;2023-03-03T23:20:09;5.10;99.90
52211;DHT22;38179;52.756;6.906;2023-03-03T23:22:35;5.10;99.90
52211;DHT22;38179;52.756;6.906;2023-03-03T23:25:01;5.10;99.90
52211;DHT22;38179;52.756;6.906;2023-03-03T23:27:27;5.10;99.90
52211;DHT22;38179;52.756;6.906;2023-03-03T23:29:53;5.10;99.90
52211;DHT22;38179;52.756;6.906;2023-03-03T23:32:19;5.10;99.90
52211;DHT22;38179;52.756;6.906;2023-03-03T23:34:53;5.10;99.90
52211;DHT22;38179;52.756;6.906;2023-03-03T23:37:19;5.10;99.90
52211;DHT22;38179;52.756;6.906;2023-03-03T23:39:45;5.10;99.90